createdAt,value
2018-03-28T00:00:57.157Z,7.08
2018-03-28T00:01:57.157Z,7.12
2018-03-28T00:02:57.167Z,7.14
2018-03-28T00:03:57.207Z,7.13
2018-03-28T00:04:57.180Z,7.13
2018-03-28T00:05:57.176Z,7.14
2018-03-28T00:06:57.188Z,7.14
2018-03-28T00:07:57.183Z,7.19
2018-03-28T00:08:57.702Z,7.2
2018-03-28T00:09:57.168Z,7.15
2018-03-28T00:10:57.187Z,7.21
2018-03-28T00:11:57.181Z,7.24
2018-03-28T00:12:57.179Z,7.23
2018-03-28T00:13:57.194Z,7.23
2018-03-28T00:14:57.172Z,7.23
2018-03-28T00:15:57.168Z,7.27
2018-03-28T00:16:57.222Z,7.27
2018-03-28T00:17:57.199Z,7.28
2018-03-28T00:18:57.164Z,7.25
2018-03-28T00:19:57.179Z,7.29
2018-03-28T00:20:57.212Z,7.31
2018-03-28T00:21:57.182Z,7.26
2018-03-28T00:22:57.165Z,7.27
2018-03-28T00:23:57.168Z,7.28
2018-03-28T00:24:57.192Z,7.3
2018-03-28T00:25:57.175Z,7.3
2018-03-28T00:26:57.171Z,7.3
2018-03-28T00:27:57.196Z,7.3
2018-03-28T00:28:57.175Z,7.3
2018-03-28T00:29:57.179Z,7.34
2018-03-28T00:30:57.175Z,7.32
2018-03-28T00:31:57.195Z,7.34
2018-03-28T00:32:57.186Z,7.34
2018-03-28T00:33:57.166Z,7.33
2018-03-28T00:34:57.192Z,7.37
2018-03-28T00:35:57.178Z,7.37
2018-03-28T00:36:57.170Z,7.35
2018-03-28T00:37:57.194Z,7.31
2018-03-28T00:38:57.189Z,7.32
2018-03-28T00:39:57.170Z,7.35
2018-03-28T00:40:57.174Z,7.37
2018-03-28T00:41:57.217Z,7.38
2018-03-28T00:42:57.196Z,7.36
2018-03-28T00:43:57.211Z,7.34
2018-03-28T00:44:57.178Z,7.4
2018-03-28T00:45:57.179Z,7.37
2018-03-28T00:46:57.190Z,7.43
2018-03-28T00:47:57.307Z,7.41
2018-03-28T00:48:57.210Z,7.37
2018-03-28T00:49:57.173Z,7.41
2018-03-28T00:50:57.250Z,7.36
2018-03-28T00:51:57.201Z,7.43
2018-03-28T00:52:57.208Z,7.39
2018-03-28T00:53:57.225Z,7.43
2018-03-28T00:54:57.187Z,7.39
2018-03-28T00:55:57.181Z,7.42
2018-03-28T00:56:57.210Z,7.37
2018-03-28T00:57:57.202Z,7.39
2018-03-28T00:58:57.198Z,7.4
2018-03-28T00:59:57.188Z,7.44
2018-03-28T01:00:57.188Z,7.35
2018-03-28T01:01:57.221Z,7.41
2018-03-28T01:02:57.207Z,7.4
2018-03-28T01:03:57.187Z,7.43
2018-03-28T01:04:57.164Z,7.41
2018-03-28T01:05:57.208Z,7.39
2018-03-28T01:06:57.193Z,7.38
2018-03-28T01:07:57.223Z,7.42
2018-03-28T01:08:57.217Z,7.42
2018-03-28T01:09:57.208Z,7.47
2018-03-28T01:10:57.188Z,7.47
2018-03-28T01:11:57.230Z,7.46
2018-03-28T01:12:57.228Z,7.47
2018-03-28T01:13:57.191Z,7.46
2018-03-28T01:14:57.188Z,7.49
2018-03-28T01:15:57.204Z,7.49
2018-03-28T01:16:57.234Z,7.51
2018-03-28T01:17:57.258Z,7.48
2018-03-28T01:18:57.314Z,7.49
2018-03-28T01:19:57.202Z,7.53
2018-03-28T01:20:57.185Z,7.51
2018-03-28T01:21:57.203Z,7.5
2018-03-28T01:22:57.189Z,7.52
2018-03-28T01:23:57.204Z,7.51
2018-03-28T01:24:57.196Z,7.52
2018-03-28T01:25:57.257Z,7.48
2018-03-28T01:26:57.201Z,7.47
2018-03-28T01:27:57.205Z,7.5
2018-03-28T01:28:57.192Z,7.48
2018-03-28T01:29:57.198Z,7.53
2018-03-28T01:30:57.200Z,7.5
2018-03-28T01:31:57.203Z,7.51
2018-03-28T01:32:57.203Z,7.49
2018-03-28T01:33:57.195Z,7.52
2018-03-28T01:34:57.349Z,7.51
2018-03-28T01:35:57.254Z,7.51
2018-03-28T01:36:57.197Z,7.51
2018-03-28T01:37:57.221Z,7.52
2018-03-28T01:38:57.206Z,7.52
2018-03-28T01:39:57.703Z,7.53
2018-03-28T01:40:57.258Z,7.5
2018-03-28T01:41:57.217Z,7.5
2018-03-28T01:42:57.208Z,7.51
2018-03-28T01:43:57.207Z,7.52
2018-03-28T01:44:57.233Z,7.52
2018-03-28T01:45:57.237Z,7.51
2018-03-28T01:46:57.214Z,7.54
2018-03-28T01:47:57.216Z,7.54
2018-03-28T01:48:57.199Z,7.54
2018-03-28T01:49:57.347Z,7.53
2018-03-28T01:50:57.234Z,7.53
2018-03-28T01:51:57.257Z,7.51
2018-03-28T01:52:57.267Z,7.53
2018-03-28T01:53:57.208Z,7.48
2018-03-28T01:54:57.252Z,7.55
2018-03-28T01:55:57.219Z,7.56
2018-03-28T01:56:57.198Z,7.57
2018-03-28T01:57:57.208Z,7.53
2018-03-28T01:58:57.208Z,7.54
2018-03-28T01:59:57.498Z,7.58
2018-03-28T02:00:57.202Z,7.58
2018-03-28T02:01:57.223Z,7.56
2018-03-28T02:02:57.215Z,7.55
2018-03-28T02:03:57.200Z,7.58
2018-03-28T02:04:57.293Z,7.59
2018-03-28T02:05:57.211Z,7.57
2018-03-28T02:06:57.625Z,7.61
2018-03-28T02:07:57.272Z,7.6
2018-03-28T02:08:57.213Z,7.62
2018-03-28T02:09:57.203Z,7.6
2018-03-28T02:10:57.259Z,7.59
2018-03-28T02:11:57.225Z,7.6
2018-03-28T02:12:57.205Z,7.61
2018-03-28T02:13:57.215Z,7.57
2018-03-28T02:14:57.216Z,7.53
2018-03-28T02:15:57.357Z,7.55
2018-03-28T02:16:57.217Z,7.58
2018-03-28T02:17:57.216Z,7.59
2018-03-28T02:18:57.254Z,7.57
2018-03-28T02:19:57.210Z,7.59
2018-03-28T02:20:57.263Z,7.6
2018-03-28T02:21:57.273Z,7.63
2018-03-28T02:22:57.221Z,7.61
2018-03-28T02:23:57.221Z,7.62
2018-03-28T02:24:57.220Z,7.64
2018-03-28T02:25:57.227Z,7.61
2018-03-28T02:26:57.226Z,7.59
2018-03-28T02:27:57.238Z,7.64
2018-03-28T02:28:57.219Z,7.64
2018-03-28T02:29:57.234Z,7.65
2018-03-28T02:30:57.261Z,7.68
2018-03-28T02:31:57.235Z,7.63
2018-03-28T02:32:57.283Z,7.66
2018-03-28T02:33:57.243Z,7.63
2018-03-28T02:34:57.252Z,7.63
2018-03-28T02:35:57.232Z,7.64
2018-03-28T02:36:57.253Z,7.64
2018-03-28T02:37:57.231Z,7.65
2018-03-28T02:38:57.239Z,7.64
2018-03-28T02:39:57.258Z,7.65
2018-03-28T02:40:57.231Z,7.68
2018-03-28T02:41:57.257Z,7.67
2018-03-28T02:42:57.244Z,7.64
2018-03-28T02:43:57.264Z,7.65
2018-03-28T02:44:57.269Z,7.69
2018-03-28T02:45:57.238Z,7.71
2018-03-28T02:46:57.268Z,7.69
2018-03-28T02:47:57.261Z,7.68
2018-03-28T02:48:57.284Z,7.7
2018-03-28T02:49:57.246Z,7.7
2018-03-28T02:50:57.276Z,7.67
2018-03-28T02:51:57.271Z,7.69
2018-03-28T02:52:57.224Z,7.71
2018-03-28T02:53:57.259Z,7.71
2018-03-28T02:54:57.240Z,7.73
2018-03-28T02:55:57.250Z,7.74
2018-03-28T02:56:57.240Z,7.75
2018-03-28T02:57:57.256Z,7.77
2018-03-28T02:58:57.245Z,7.68
2018-03-28T02:59:57.230Z,7.7
2018-03-28T03:00:57.262Z,7.72
2018-03-28T03:01:57.258Z,7.73
2018-03-28T03:02:57.248Z,7.73
2018-03-28T03:03:57.238Z,7.78
2018-03-28T03:04:57.252Z,7.75
2018-03-28T03:05:57.255Z,7.75
2018-03-28T03:06:57.345Z,7.76
2018-03-28T03:07:57.266Z,7.74
2018-03-28T03:08:57.304Z,7.74
2018-03-28T03:09:57.237Z,7.73
2018-03-28T03:10:57.250Z,7.75
2018-03-28T03:11:57.262Z,7.74
2018-03-28T03:12:57.233Z,7.77
2018-03-28T03:13:57.235Z,7.75
2018-03-28T03:14:57.258Z,7.78
2018-03-28T03:15:57.244Z,7.79
2018-03-28T03:16:57.241Z,7.78
2018-03-28T03:17:57.247Z,7.76
2018-03-28T03:18:57.235Z,7.78
2018-03-28T03:19:57.244Z,7.76
2018-03-28T03:20:57.237Z,7.77
2018-03-28T03:21:57.237Z,7.78
2018-03-28T03:22:57.289Z,7.79
2018-03-28T03:23:57.228Z,7.76
2018-03-28T03:24:57.279Z,7.76
2018-03-28T03:25:57.269Z,7.8
2018-03-28T03:26:57.266Z,7.79
2018-03-28T03:27:57.242Z,7.77
2018-03-28T03:28:57.250Z,7.78
2018-03-28T03:29:57.249Z,7.8
2018-03-28T03:30:57.255Z,7.83
2018-03-28T03:31:57.249Z,7.8
2018-03-28T03:32:57.253Z,7.82
2018-03-28T03:33:57.222Z,7.86
2018-03-28T03:34:57.246Z,7.83
2018-03-28T03:35:57.236Z,7.83
2018-03-28T03:36:57.931Z,7.82
2018-03-28T03:37:57.253Z,7.78
2018-03-28T03:38:57.245Z,7.8
2018-03-28T03:39:57.237Z,7.83
2018-03-28T03:40:57.251Z,7.86
2018-03-28T03:41:57.257Z,7.86
2018-03-28T03:42:57.239Z,7.85
2018-03-28T03:43:57.236Z,7.86
2018-03-28T03:44:57.249Z,7.83
2018-03-28T03:45:57.250Z,7.84
2018-03-28T03:46:57.242Z,7.86
2018-03-28T03:47:57.236Z,7.89
2018-03-28T03:48:57.285Z,7.83
2018-03-28T03:49:57.249Z,7.83
2018-03-28T03:50:57.262Z,7.86
2018-03-28T03:51:57.278Z,7.85
2018-03-28T03:52:57.277Z,7.81
2018-03-28T03:53:57.339Z,7.86
2018-03-28T03:54:57.249Z,7.86
2018-03-28T03:55:57.255Z,7.86
2018-03-28T03:56:57.238Z,7.89
2018-03-28T03:57:57.247Z,7.89
2018-03-28T03:58:57.262Z,7.85
2018-03-28T03:59:57.245Z,7.89
2018-03-28T04:00:57.245Z,7.89
2018-03-28T04:01:57.239Z,7.88
2018-03-28T04:02:57.270Z,7.88
2018-03-28T04:03:57.333Z,7.87
2018-03-28T04:04:57.280Z,7.88
2018-03-28T04:05:57.245Z,7.9
2018-03-28T04:06:57.331Z,7.88
2018-03-28T04:07:57.256Z,7.91
2018-03-28T04:08:57.269Z,7.9
2018-03-28T04:09:57.263Z,7.9
2018-03-28T04:10:57.236Z,7.9
2018-03-28T04:11:57.242Z,7.91
2018-03-28T04:12:57.246Z,7.92
2018-03-28T04:13:57.331Z,7.91
2018-03-28T04:14:57.310Z,7.86
2018-03-28T04:15:57.251Z,7.88
2018-03-28T04:16:57.258Z,7.89
2018-03-28T04:17:57.259Z,7.9
2018-03-28T04:18:57.303Z,7.87
2018-03-28T04:19:57.297Z,7.89
2018-03-28T04:20:57.262Z,7.87
2018-03-28T04:21:57.254Z,7.86
2018-03-28T04:22:57.256Z,7.88
2018-03-28T04:23:57.268Z,7.87
2018-03-28T04:24:57.320Z,7.9
2018-03-28T04:25:57.251Z,7.87
2018-03-28T04:26:57.251Z,7.85
2018-03-28T04:27:57.255Z,7.9
2018-03-28T04:28:57.302Z,7.91
2018-03-28T04:29:57.242Z,7.91
2018-03-28T04:30:57.249Z,7.9
2018-03-28T04:31:57.251Z,7.85
2018-03-28T04:32:57.266Z,7.88
2018-03-28T04:33:57.275Z,7.9
2018-03-28T04:34:57.271Z,7.91
2018-03-28T04:35:57.271Z,7.91
2018-03-28T04:36:57.287Z,7.92
2018-03-28T04:37:57.258Z,7.9
2018-03-28T04:38:57.267Z,7.92
2018-03-28T04:39:57.311Z,7.89
2018-03-28T04:40:57.261Z,7.86
2018-03-28T04:41:57.279Z,7.84
2018-03-28T04:42:57.273Z,7.86
2018-03-28T04:43:57.273Z,7.89
2018-03-28T04:44:57.292Z,7.91
2018-03-28T04:45:57.290Z,7.89
2018-03-28T04:46:57.268Z,7.89
2018-03-28T04:47:57.297Z,7.92
2018-03-28T04:48:57.269Z,7.89
2018-03-28T04:49:57.261Z,7.91
2018-03-28T04:50:57.278Z,7.88
2018-03-28T04:51:57.290Z,7.88
2018-03-28T04:52:57.265Z,7.86
2018-03-28T04:53:57.271Z,7.87
2018-03-28T04:54:57.289Z,7.83
2018-03-28T04:55:57.398Z,7.82
2018-03-28T04:56:57.263Z,7.88
2018-03-28T04:57:57.290Z,7.87
2018-03-28T04:58:57.285Z,7.85
2018-03-28T04:59:57.267Z,7.85
2018-03-28T05:00:57.308Z,7.88
2018-03-28T05:01:57.291Z,7.88
2018-03-28T05:02:57.279Z,7.9
2018-03-28T05:03:57.311Z,7.86
2018-03-28T05:04:57.287Z,7.84
2018-03-28T05:05:57.291Z,7.86
2018-03-28T05:06:57.277Z,7.85
2018-03-28T05:07:57.292Z,7.86
2018-03-28T05:08:57.309Z,7.88
2018-03-28T05:09:57.281Z,7.82
2018-03-28T05:10:57.292Z,7.82
2018-03-28T05:11:57.277Z,7.86
2018-03-28T05:12:57.284Z,7.86
2018-03-28T05:13:57.277Z,7.85
2018-03-28T05:14:57.336Z,7.83
2018-03-28T05:15:57.288Z,7.85
2018-03-28T05:16:57.276Z,7.86
2018-03-28T05:17:57.278Z,7.86
2018-03-28T05:18:57.275Z,7.86
2018-03-28T05:19:57.299Z,7.82
2018-03-28T05:20:57.283Z,7.8
2018-03-28T05:21:57.276Z,7.79
2018-03-28T05:22:57.306Z,7.82
2018-03-28T05:23:57.284Z,7.82
2018-03-28T05:24:57.285Z,7.78
2018-03-28T05:25:57.320Z,7.78
2018-03-28T05:26:57.385Z,7.79
2018-03-28T05:27:57.296Z,7.77
2018-03-28T05:28:57.306Z,7.8
2018-03-28T05:29:57.292Z,7.78
2018-03-28T05:30:57.295Z,7.79
2018-03-28T05:31:57.296Z,7.76
2018-03-28T05:32:57.303Z,7.73
2018-03-28T05:33:57.278Z,7.73
2018-03-28T05:34:57.300Z,7.77
2018-03-28T05:35:57.309Z,7.75
2018-03-28T05:36:57.310Z,7.72
2018-03-28T05:37:57.282Z,7.74
2018-03-28T05:38:57.294Z,7.72
2018-03-28T05:39:57.306Z,7.74
2018-03-28T05:40:57.311Z,7.69
2018-03-28T05:41:57.280Z,7.7
2018-03-28T05:42:57.284Z,7.72
2018-03-28T05:43:57.377Z,7.7
2018-03-28T05:44:57.299Z,7.68
2018-03-28T05:45:57.318Z,7.69
2018-03-28T05:46:57.337Z,7.64
2018-03-28T05:47:57.292Z,7.7
2018-03-28T05:48:57.297Z,7.7
2018-03-28T05:49:57.297Z,7.71
2018-03-28T05:50:57.343Z,7.76
2018-03-28T05:51:57.310Z,7.76
2018-03-28T05:52:57.294Z,7.71
2018-03-28T05:53:57.291Z,7.67
2018-03-28T05:54:57.379Z,7.72
2018-03-28T05:55:57.313Z,7.73
2018-03-28T05:56:57.328Z,7.72
2018-03-28T05:57:57.426Z,7.69
2018-03-28T05:58:57.315Z,7.73
2018-03-28T05:59:57.341Z,7.76
2018-03-28T06:00:57.307Z,7.77
2018-03-28T06:01:57.550Z,7.76
2018-03-28T06:02:57.297Z,7.72
2018-03-28T06:03:57.301Z,7.69
2018-03-28T06:04:57.327Z,7.71
2018-03-28T06:05:57.318Z,7.69
2018-03-28T06:06:57.332Z,7.73
2018-03-28T06:07:57.332Z,7.76
2018-03-28T06:08:57.294Z,7.71
2018-03-28T06:09:57.317Z,7.7
2018-03-28T06:10:57.938Z,7.72
2018-03-28T06:11:57.301Z,7.72
2018-03-28T06:12:57.544Z,7.77
2018-03-28T06:13:57.297Z,7.78
2018-03-28T06:14:57.338Z,7.79
2018-03-28T06:15:57.322Z,7.76
2018-03-28T06:16:57.322Z,7.8
2018-03-28T06:17:57.301Z,7.76
2018-03-28T06:18:58.210Z,7.72
2018-03-28T06:19:57.428Z,7.68
2018-03-28T06:20:57.293Z,7.67
2018-03-28T06:21:57.535Z,7.67
2018-03-28T06:22:57.312Z,7.64
2018-03-28T06:23:57.310Z,7.63
2018-03-28T06:24:57.318Z,7.64
2018-03-28T06:25:57.287Z,7.64
2018-03-28T06:26:57.314Z,7.61
2018-03-28T06:27:57.313Z,7.63
2018-03-28T06:28:57.376Z,7.61
2018-03-28T06:29:57.302Z,7.58
2018-03-28T06:30:57.320Z,7.57
2018-03-28T06:31:57.353Z,7.56
2018-03-28T06:32:57.377Z,7.52
2018-03-28T06:33:57.313Z,7.53
2018-03-28T06:34:57.324Z,7.52
2018-03-28T06:35:57.343Z,7.52
2018-03-28T06:36:57.310Z,7.52
2018-03-28T06:37:57.996Z,7.52
2018-03-28T06:38:57.345Z,7.49
2018-03-28T06:39:57.331Z,7.51
2018-03-28T06:40:57.319Z,7.53
2018-03-28T06:41:57.323Z,7.49
2018-03-28T06:42:57.378Z,7.44
2018-03-28T06:43:57.303Z,7.41
2018-03-28T06:44:57.308Z,7.36
2018-03-28T06:45:57.309Z,7.36
2018-03-28T06:46:57.322Z,7.36
2018-03-28T06:47:57.328Z,7.34
2018-03-28T06:48:57.306Z,7.32
2018-03-28T06:49:57.350Z,7.3
2018-03-28T06:50:57.336Z,7.34
2018-03-28T06:51:57.319Z,7.36
2018-03-28T06:52:57.340Z,7.32
2018-03-28T06:53:57.332Z,7.3
2018-03-28T06:54:57.329Z,7.26
2018-03-28T06:55:57.648Z,7.24
2018-03-28T06:56:57.331Z,7.26
2018-03-28T06:57:57.320Z,7.24
2018-03-28T06:58:57.317Z,7.25
2018-03-28T06:59:57.404Z,7.26
2018-03-28T07:00:57.317Z,7.27
2018-03-28T07:01:57.405Z,7.26
2018-03-28T07:02:57.323Z,7.29
2018-03-28T07:03:57.332Z,7.27
2018-03-28T07:04:57.328Z,7.32
2018-03-28T07:05:57.320Z,7.33
2018-03-28T07:06:57.380Z,7.32
2018-03-28T07:07:57.366Z,7.3
2018-03-28T07:08:57.579Z,7.33
2018-03-28T07:09:57.311Z,7.29
2018-03-28T07:10:57.392Z,7.17
2018-03-28T07:11:57.322Z,7.17
2018-03-28T07:12:57.330Z,7.21
2018-03-28T07:13:57.354Z,7.28
2018-03-28T07:14:57.349Z,7.26
2018-03-28T07:15:57.319Z,7.2
2018-03-28T07:16:57.346Z,7.23
2018-03-28T07:17:57.299Z,7.19
2018-03-28T07:18:57.334Z,7.23
2018-03-28T07:19:57.331Z,7.19
2018-03-28T07:20:57.382Z,7.19
2018-03-28T07:21:57.316Z,7.21
2018-03-28T07:22:57.321Z,7.19
2018-03-28T07:23:57.365Z,7.24
2018-03-28T07:24:57.355Z,7.19
2018-03-28T07:25:57.328Z,7.12
2018-03-28T07:26:57.327Z,7.12
2018-03-28T07:27:57.317Z,7.15
2018-03-28T07:28:57.376Z,7.18
2018-03-28T07:29:57.349Z,7.18
2018-03-28T07:30:57.395Z,7.17
2018-03-28T07:31:57.320Z,7.14
2018-03-28T07:32:57.328Z,7.21
2018-03-28T07:33:57.336Z,7.21
2018-03-28T07:34:57.361Z,7.14
2018-03-28T07:35:57.327Z,7.04
2018-03-28T07:36:57.328Z,7.08
2018-03-28T07:37:57.334Z,7.03
2018-03-28T07:38:57.340Z,7
2018-03-28T07:39:57.346Z,7.01
2018-03-28T07:40:57.319Z,6.97
2018-03-28T07:41:57.351Z,6.95
2018-03-28T07:42:57.338Z,6.99
2018-03-28T07:43:57.321Z,6.93
2018-03-28T07:44:57.387Z,6.93
2018-03-28T07:45:57.319Z,6.97
2018-03-28T07:46:57.341Z,7
2018-03-28T07:47:57.604Z,7.01
2018-03-28T07:48:57.367Z,7.03
2018-03-28T07:49:57.342Z,6.97
2018-03-28T07:50:57.350Z,6.92
2018-03-28T07:51:57.329Z,6.87
2018-03-28T07:52:57.550Z,6.86
2018-03-28T07:53:57.329Z,6.79
2018-03-28T07:54:57.350Z,6.68
2018-03-28T07:55:57.346Z,6.75
2018-03-28T07:56:57.335Z,6.7
2018-03-28T07:57:57.391Z,6.7
2018-03-28T07:58:57.391Z,6.72
2018-03-28T07:59:57.344Z,6.77
2018-03-28T08:00:57.386Z,6.74
2018-03-28T08:01:57.428Z,6.6
2018-03-28T08:02:57.378Z,6.56
2018-03-28T08:03:57.594Z,6.64
2018-03-28T08:04:57.343Z,6.68
2018-03-28T08:05:57.372Z,6.69
2018-03-28T08:06:57.329Z,6.64
2018-03-28T08:07:57.325Z,6.63
2018-03-28T08:08:57.331Z,6.65
2018-03-28T08:09:57.377Z,6.72
2018-03-28T08:10:57.416Z,6.59
2018-03-28T08:11:57.370Z,6.57
2018-03-28T08:12:57.369Z,6.6
2018-03-28T08:13:57.376Z,6.52
2018-03-28T08:14:57.342Z,6.44
2018-03-28T08:15:57.358Z,6.4
2018-03-28T08:16:57.329Z,6.42
2018-03-28T08:17:57.329Z,6.43
2018-03-28T08:18:57.348Z,6.46
2018-03-28T08:19:57.367Z,6.55
2018-03-28T08:20:57.356Z,6.55
2018-03-28T08:21:57.340Z,6.66
2018-03-28T08:22:57.387Z,6.55
2018-03-28T08:23:57.343Z,6.55
2018-03-28T08:24:57.353Z,6.48
2018-03-28T08:25:57.358Z,6.56
2018-03-28T08:26:57.341Z,6.58
2018-03-28T08:27:57.348Z,6.54
2018-03-28T08:28:57.346Z,6.5
2018-03-28T08:29:57.376Z,6.45
2018-03-28T08:30:57.356Z,6.38
2018-03-28T08:31:57.333Z,6.43
2018-03-28T08:32:57.408Z,6.45
2018-03-28T08:33:57.349Z,6.42
2018-03-28T08:34:57.377Z,6.33
2018-03-28T08:35:57.342Z,6.17
2018-03-28T08:36:57.361Z,6.23
2018-03-28T08:37:57.364Z,6.28
2018-03-28T08:38:57.345Z,6.37
2018-03-28T08:39:57.347Z,6.24
2018-03-28T08:40:57.364Z,6.3
2018-03-28T08:41:57.346Z,6.18
2018-03-28T08:42:57.342Z,6.29
2018-03-28T08:43:57.369Z,6.25
2018-03-28T08:44:57.353Z,6.27
2018-03-28T08:45:57.355Z,6.01
2018-03-28T08:46:57.361Z,6.15
2018-03-28T08:47:57.434Z,6.16
2018-03-28T08:48:57.359Z,6.23
2018-03-28T08:49:57.423Z,6.31
2018-03-28T08:50:57.389Z,6.17
2018-03-28T08:51:57.375Z,6.29
2018-03-28T08:52:57.351Z,6.24
2018-03-28T08:53:57.417Z,6.2
2018-03-28T08:54:57.399Z,6.17
2018-03-28T08:55:57.435Z,6.22
2018-03-28T08:56:57.347Z,6.3
2018-03-28T08:57:57.371Z,6.18
2018-03-28T08:58:57.374Z,6.22
2018-03-28T08:59:57.349Z,6.16
2018-03-28T09:00:57.983Z,6.11
2018-03-28T09:01:59.000Z,6.18
2018-03-28T09:02:57.366Z,6.07
2018-03-28T09:03:57.431Z,6.02
2018-03-28T09:04:57.360Z,6.11
2018-03-28T09:05:57.382Z,6.07
2018-03-28T09:06:57.449Z,6.09
2018-03-28T09:07:57.380Z,6.06
2018-03-28T09:08:57.360Z,6.02
2018-03-28T09:09:57.423Z,6.03
2018-03-28T09:10:57.356Z,6.01
2018-03-28T09:11:57.368Z,6
2018-03-28T09:12:57.347Z,6.06
2018-03-28T09:13:57.349Z,6.04
2018-03-28T09:14:57.354Z,6.08
2018-03-28T09:15:57.377Z,6.08
2018-03-28T09:16:57.395Z,6.02
2018-03-28T09:17:57.365Z,6
2018-03-28T09:18:57.414Z,6.01
2018-03-28T09:19:57.553Z,5.97
2018-03-28T09:20:57.368Z,6.03
2018-03-28T09:21:57.431Z,5.93
2018-03-28T09:22:58.412Z,6.01
2018-03-28T09:23:57.351Z,6.01
2018-03-28T09:24:57.378Z,5.97
2018-03-28T09:25:57.377Z,5.87
2018-03-28T09:26:57.382Z,5.9
2018-03-28T09:27:57.419Z,6
2018-03-28T09:28:57.376Z,5.91
2018-03-28T09:29:57.371Z,5.88
2018-03-28T09:30:57.399Z,5.83
2018-03-28T09:31:57.398Z,5.93
2018-03-28T09:32:57.569Z,5.96
2018-03-28T09:33:57.431Z,5.97
2018-03-28T09:34:59.795Z,5.91
2018-03-28T09:35:57.401Z,6
2018-03-28T09:36:59.100Z,5.98
2018-03-28T09:37:58.455Z,5.98
2018-03-28T09:39:00.749Z,5.93
2018-03-28T09:39:57.412Z,5.97
2018-03-28T09:40:57.362Z,5.87
2018-03-28T09:41:57.401Z,5.94
2018-03-28T09:42:57.351Z,5.92
2018-03-28T09:43:57.370Z,6
2018-03-28T09:44:57.382Z,6.06
2018-03-28T09:45:57.372Z,6
2018-03-28T09:46:57.678Z,6.01
2018-03-28T09:47:57.372Z,5.94
2018-03-28T09:48:57.383Z,5.91
2018-03-28T09:49:57.391Z,5.95
2018-03-28T09:50:57.393Z,5.93
2018-03-28T09:51:57.496Z,5.92
2018-03-28T09:52:57.357Z,5.9
2018-03-28T09:53:57.387Z,6.05
2018-03-28T09:54:57.391Z,5.98
2018-03-28T09:55:57.371Z,6.05
2018-03-28T09:56:57.655Z,6.04
2018-03-28T09:57:57.393Z,5.96
2018-03-28T09:58:57.362Z,5.81
2018-03-28T09:59:57.404Z,5.87
2018-03-28T10:00:57.431Z,5.85
2018-03-28T10:01:57.407Z,5.97
2018-03-28T10:02:57.365Z,5.86
2018-03-28T10:03:57.390Z,5.92
2018-03-28T10:04:57.391Z,5.93
2018-03-28T10:05:57.522Z,5.99
2018-03-28T10:06:57.465Z,5.9
2018-03-28T10:07:57.369Z,5.79
2018-03-28T10:08:57.393Z,5.78
2018-03-28T10:09:57.401Z,5.9
2018-03-28T10:10:57.388Z,5.78
2018-03-28T10:11:57.368Z,5.91
2018-03-28T10:12:57.367Z,5.89
2018-03-28T10:13:57.399Z,5.86
2018-03-28T10:14:57.369Z,5.96
2018-03-28T10:15:57.384Z,6.02
2018-03-28T10:16:57.389Z,5.94
2018-03-28T10:17:57.672Z,5.85
2018-03-28T10:18:57.390Z,6
2018-03-28T10:19:57.382Z,6.03
2018-03-28T10:20:57.403Z,6.05
2018-03-28T10:21:57.404Z,6.09
2018-03-28T10:22:57.413Z,6.03
2018-03-28T10:23:57.396Z,6.11
2018-03-28T10:24:57.434Z,6.05
2018-03-28T10:25:57.380Z,5.99
2018-03-28T10:26:57.416Z,6.03
2018-03-28T10:27:57.403Z,6.12
2018-03-28T10:28:57.414Z,6.17
2018-03-28T10:29:57.411Z,6.15
2018-03-28T10:30:57.390Z,6.1
2018-03-28T10:31:57.477Z,6.13
2018-03-28T10:32:57.398Z,6.23
2018-03-28T10:33:57.418Z,6.14
2018-03-28T10:34:57.400Z,6.21
2018-03-28T10:35:57.498Z,6.21
2018-03-28T10:36:57.478Z,6.25
2018-03-28T10:37:57.392Z,6.13
2018-03-28T10:38:57.433Z,6.18
2018-03-28T10:39:57.404Z,6.19
2018-03-28T10:40:57.412Z,6.18
2018-03-28T10:41:57.438Z,6.24
2018-03-28T10:42:57.421Z,6.34
2018-03-28T10:43:57.408Z,6.29
2018-03-28T10:44:57.427Z,6.19
2018-03-28T10:45:57.416Z,6.14
2018-03-28T10:46:57.411Z,6.13
2018-03-28T10:47:57.401Z,6.17
2018-03-28T10:48:57.401Z,6.2
2018-03-28T10:49:57.404Z,6.14
2018-03-28T10:50:57.402Z,6.16
2018-03-28T10:51:57.397Z,6.08
2018-03-28T10:52:57.428Z,6.12
2018-03-28T10:53:57.431Z,6.11
2018-03-28T10:54:57.404Z,6.19
2018-03-28T10:55:57.451Z,6.25
2018-03-28T10:56:57.423Z,6.33
2018-03-28T10:57:57.395Z,6.27
2018-03-28T10:58:57.433Z,6.22
2018-03-28T10:59:57.435Z,6.34
2018-03-28T11:00:57.408Z,6.38
2018-03-28T11:01:57.418Z,6.34
2018-03-28T11:02:57.439Z,6.19
2018-03-28T11:03:57.430Z,6.24
2018-03-28T11:04:57.419Z,6.25
2018-03-28T11:05:57.450Z,6.2
2018-03-28T11:06:57.433Z,6.28
2018-03-28T11:07:57.695Z,6.28
2018-03-28T11:08:57.415Z,6.35
2018-03-28T11:09:57.424Z,6.47
2018-03-28T11:10:57.425Z,6.33
2018-03-28T11:11:57.460Z,6.38
2018-03-28T11:12:57.512Z,6.36
2018-03-28T11:13:57.465Z,6.44
2018-03-28T11:14:57.532Z,6.32
2018-03-28T11:15:57.413Z,6.41
2018-03-28T11:16:59.253Z,6.22
2018-03-28T11:17:57.426Z,6.18
2018-03-28T11:18:57.428Z,6.14
2018-03-28T11:19:57.594Z,6.18
2018-03-28T11:20:57.608Z,6.11
2018-03-28T11:21:57.572Z,6.07
2018-03-28T11:22:57.466Z,6.02
2018-03-28T11:23:59.784Z,6.13
2018-03-28T11:24:57.522Z,6
2018-03-28T11:25:57.703Z,6.06
2018-03-28T11:26:57.464Z,6.13
2018-03-28T11:27:57.490Z,6.01
2018-03-28T11:28:57.462Z,6.06
2018-03-28T11:29:57.484Z,6.06
2018-03-28T11:30:57.451Z,5.95
2018-03-28T11:31:57.459Z,5.98
2018-03-28T11:32:57.438Z,5.99
2018-03-28T11:33:57.423Z,6.07
2018-03-28T11:34:57.441Z,6.16
2018-03-28T11:35:57.422Z,6.22
2018-03-28T11:36:57.420Z,6.18
2018-03-28T11:37:57.704Z,6.21
2018-03-28T11:38:57.487Z,6.26
2018-03-28T11:39:57.462Z,6.34
2018-03-28T11:40:57.426Z,6.17
2018-03-28T11:41:57.498Z,6.25
2018-03-28T11:42:57.425Z,6.28
2018-03-28T11:43:57.442Z,6.26
2018-03-28T11:44:57.587Z,6.36
2018-03-28T11:45:57.451Z,6.38
2018-03-28T11:46:57.428Z,6.24
2018-03-28T11:47:57.444Z,6.35
2018-03-28T11:48:57.420Z,6.37
2018-03-28T11:49:57.451Z,6.44
2018-03-28T11:50:57.440Z,6.36
2018-03-28T11:51:57.427Z,6.43
2018-03-28T11:52:58.068Z,6.36
2018-03-28T11:53:57.435Z,6.26
2018-03-28T11:54:57.481Z,6.3
2018-03-28T11:55:57.436Z,6.43
2018-03-28T11:56:57.446Z,6.43
2018-03-28T11:57:57.463Z,6.37
2018-03-28T11:58:57.502Z,6.4
2018-03-28T11:59:57.482Z,6.42
2018-03-28T12:00:57.454Z,6.38
2018-03-28T12:01:57.472Z,6.4
2018-03-28T12:02:57.478Z,6.44
2018-03-28T12:03:57.447Z,6.48
2018-03-28T12:04:57.491Z,6.44
2018-03-28T12:05:57.462Z,6.43
2018-03-28T12:06:57.463Z,6.47
2018-03-28T12:07:57.437Z,6.43
2018-03-28T12:08:57.504Z,6.44
2018-03-28T12:09:57.515Z,6.4
2018-03-28T12:10:57.441Z,6.45
2018-03-28T12:11:57.453Z,6.51
2018-03-28T12:12:57.444Z,6.57
2018-03-28T12:13:57.440Z,6.57
2018-03-28T12:14:57.465Z,6.57
2018-03-28T12:15:57.685Z,6.52
2018-03-28T12:16:57.452Z,6.5
2018-03-28T12:17:57.460Z,6.57
2018-03-28T12:18:57.450Z,6.48
2018-03-28T12:19:57.476Z,6.56
2018-03-28T12:20:57.469Z,6.57
2018-03-28T12:21:57.442Z,6.61
2018-03-28T12:22:57.574Z,6.66
2018-03-28T12:23:57.465Z,6.73
2018-03-28T12:24:57.557Z,6.65
2018-03-28T12:25:57.465Z,6.69
2018-03-28T12:26:57.470Z,6.73
2018-03-28T12:27:57.491Z,6.77
2018-03-28T12:28:57.620Z,6.82
2018-03-28T12:29:57.486Z,6.88
2018-03-28T12:30:57.466Z,6.93
2018-03-28T12:31:57.452Z,6.92
2018-03-28T12:32:57.473Z,6.93
2018-03-28T12:33:57.452Z,6.95
2018-03-28T12:34:57.449Z,6.97
2018-03-28T12:35:57.449Z,6.96
2018-03-28T12:36:57.484Z,6.99
2018-03-28T12:37:57.460Z,7.02
2018-03-28T12:38:57.475Z,7.02
2018-03-28T12:39:57.459Z,7.1
2018-03-28T12:40:57.504Z,7.2
2018-03-28T12:41:57.463Z,7.19
2018-03-28T12:42:57.459Z,7.28
2018-03-28T12:43:57.472Z,7.24
2018-03-28T12:44:57.485Z,7.27
2018-03-28T12:45:57.546Z,7.25
2018-03-28T12:46:57.465Z,7.27
2018-03-28T12:47:57.489Z,7.31
2018-03-28T12:48:57.491Z,7.44
2018-03-28T12:49:58.470Z,7.41
2018-03-28T12:50:57.512Z,7.46
2018-03-28T12:51:57.499Z,7.46
2018-03-28T12:52:57.549Z,7.56
2018-03-28T12:53:57.563Z,7.61
2018-03-28T12:54:57.507Z,7.69
2018-03-28T12:55:57.528Z,7.56
2018-03-28T12:56:57.470Z,7.57
2018-03-28T12:57:57.503Z,7.61
2018-03-28T12:58:57.520Z,7.59
2018-03-28T12:59:57.755Z,7.69
2018-03-28T13:00:57.466Z,7.69
2018-03-28T13:01:57.465Z,7.71
2018-03-28T13:02:57.486Z,7.73
2018-03-28T13:03:57.763Z,7.74
2018-03-28T13:04:57.466Z,7.69
2018-03-28T13:05:57.459Z,7.76
2018-03-28T13:06:57.552Z,7.75
2018-03-28T13:07:58.026Z,7.73
2018-03-28T13:08:57.472Z,7.75
2018-03-28T13:09:57.474Z,7.71
2018-03-28T13:10:57.485Z,7.73
2018-03-28T13:11:57.582Z,7.78
2018-03-28T13:12:57.472Z,7.8
2018-03-28T13:13:57.464Z,7.72
2018-03-28T13:14:57.502Z,7.71
2018-03-28T13:15:57.471Z,7.86
2018-03-28T13:16:57.546Z,7.76
2018-03-28T13:17:57.496Z,7.76
2018-03-28T13:18:57.489Z,7.77
2018-03-28T13:19:57.522Z,7.75
2018-03-28T13:20:57.501Z,7.65
2018-03-28T13:21:57.495Z,7.71